sensor_id;sensor_type;location;lat;lon;timestamp;P1;durP1;ratioP1;P2;durP2;ratioP2
8254;SDS011;4167;48.162;11.542;2023-02-28T00:00:06;231.70;;;46.33;;
8254;SDS011;4167;48.162;11.542;2023-02-28T00:02:36;190.50;;;44.47;;
8254;SDS011;4167;48.162;11.542;2023-02-28T00:05:03;232.60;;;46.80;;
8254;SDS011;4167;48.162;11.542;2023-02-28T00:07:30;175.67;;;43.37;;
8254;SDS011;4167;48.162;11.542;2023-02-28T00:09:56;234.27;;;46.87;;
8254;SDS011;4167;48.162;11.542;2023-02-28T00:12:23;206.40;;;45.43;;
8254;SDS011;4167;48.162;11.542;2023-02-28T00:14:49;197.53;;;45.80;;
8254;SDS011;4167;48.162;11.542;2023-02-28T00:17:16;251.17;;;47.63;;
8254;SDS011;4167;48.162;11.542;2023-02-28T00:19:47;211.10;;;45.20;;
8254;SDS011;4167;48.162;11.542;2023-02-28T00:22:14;183.80;;;44.77;;
8254;SDS011;4167;48.162;11.542;2023-02-28T00:24:40;221.40;;;46.23;;
8254;SDS011;4167;48.162;11.542;2023-02-28T00:27:07;183.30;;;44.00;;
8254;SDS011;4167;48.162;11.542;2023-02-28T00:29:33;161.13;;;43.30;;
8254;SDS011;4167;48.162;11.542;2023-02-28T00:32:00;204.17;;;45.37;;
8254;SDS011;4167;48.162;11.542;2023-02-28T00:34:26;230.50;;;45.70;;
8254;SDS011;4167;48.162;11.542;2023-02-28T00:36:54;229.10;;;47.30;;
8254;SDS011;4167;48.162;11.542;2023-02-28T00:39:21;278.47;;;48.60;;
8254;SDS011;4167;48.162;11.542;2023-02-28T00:41:47;154.23;;;42.50;;
8254;SDS011;4167;48.162;11.542;2023-02-28T00:44:14;200.97;;;45.73;;
8254;SDS011;4167;48.162;11.542;2023-02-28T00:46:40;204.37;;;45.43;;
8254;SDS011;4167;48.162;11.542;2023-02-28T00:49:07;176.63;;;44.47;;
8254;SDS011;4167;48.162;11.542;2023-02-28T00:51:34;196.07;;;44.87;;
8254;SDS011;4167;48.162;11.542;2023-02-28T00:54:02;191.47;;;44.20;;
8254;SDS011;4167;48.162;11.542;2023-02-28T00:56:29;213.10;;;45.03;;
8254;SDS011;4167;48.162;11.542;2023-02-28T00:58:56;227.40;;;47.13;;
8254;SDS011;4167;48.162;11.542;2023-02-28T01:01:23;162.97;;;43.30;;
8254;SDS011;4167;48.162;11.542;2023-02-28T01:03:53;196.70;;;45.63;;
8254;SDS011;4167;48.162;11.542;2023-02-28T01:06:20;191.60;;;45.03;;
8254;SDS011;4167;48.162;11.542;2023-02-28T01:08:46;194.47;;;45.13;;
8254;SDS011;4167;48.162;11.542;2023-02-28T01:11:15;176.03;;;44.50;;
8254;SDS011;4167;48.162;11.542;2023-02-28T01:13:43;174.73;;;43.47;;
8254;SDS011;4167;48.162;11.542;2023-02-28T01:16:10;251.57;;;48.47;;
8254;SDS011;4167;48.162;11.542;2023-02-28T01:18:37;182.23;;;44.00;;
8254;SDS011;4167;48.162;11.542;2023-02-28T01:21:05;192.20;;;44.40;;
8254;SDS011;4167;48.162;11.542;2023-02-28T01:23:32;189.03;;;44.27;;
8254;SDS011;4167;48.162;11.542;2023-02-28T01:26:03;221.70;;;45.43;;
8254;SDS011;4167;48.162;11.542;2023-02-28T01:28:32;208.27;;;46.00;;
8254;SDS011;4167;48.162;11.542;2023-02-28T01:30:59;260.30;;;48.37;;
8254;SDS011;4167;48.162;11.542;2023-02-28T01:33:25;220.83;;;46.40;;
8254;SDS011;4167;48.162;11.542;2023-02-28T01:35:57;207.70;;;45.63;;
8254;SDS011;4167;48.162;11.542;2023-02-28T01:38:23;190.33;;;44.50;;
8254;SDS011;4167;48.162;11.542;2023-02-28T01:40:50;201.97;;;45.03;;
8254;SDS011;4167;48.162;11.542;2023-02-28T01:43:19;259.97;;;48.20;;
8254;SDS011;4167;48.162;11.542;2023-02-28T01:45:49;196.13;;;44.60;;
8254;SDS011;4167;48.162;11.542;2023-02-28T01:48:16;173.43;;;43.57;;
8254;SDS011;4167;48.162;11.542;2023-02-28T01:50:43;168.67;;;43.57;;
8254;SDS011;4167;48.162;11.542;2023-02-28T01:53:12;163.93;;;43.30;;
8254;SDS011;4167;48.162;11.542;2023-02-28T01:55:40;174.67;;;43.80;;
8254;SDS011;4167;48.162;11.542;2023-02-28T01:58:08;162.20;;;42.47;;
8254;SDS011;4167;48.162;11.542;2023-02-28T02:00:35;194.30;;;44.13;;
8254;SDS011;4167;48.162;11.542;2023-02-28T02:03:06;216.33;;;45.80;;
8254;SDS011;4167;48.162;11.542;2023-02-28T02:05:34;172.13;;;44.03;;
8254;SDS011;4167;48.162;11.542;2023-02-28T02:08:03;202.53;;;45.00;;
8254;SDS011;4167;48.162;11.542;2023-02-28T02:10:32;193.57;;;44.43;;
8254;SDS011;4167;48.162;11.542;2023-02-28T02:13:04;287.77;;;48.57;;
8254;SDS011;4167;48.162;11.542;2023-02-28T02:15:35;160.63;;;43.33;;
8254;SDS011;4167;48.162;11.542;2023-02-28T02:18:09;165.40;;;42.50;;
8254;SDS011;4167;48.162;11.542;2023-02-28T02:20:46;136.83;;;42.70;;
8254;SDS011;4167;48.162;11.542;2023-02-28T02:23:27;173.83;;;44.27;;
8254;SDS011;4167;48.162;11.542;2023-02-28T02:26:01;249.97;;;47.53;;
8254;SDS011;4167;48.162;11.542;2023-02-28T02:28:46;161.90;;;43.73;;
8254;SDS011;4167;48.162;11.542;2023-02-28T02:31:50;195.00;;;45.00;;
8254;SDS011;4167;48.162;11.542;2023-02-28T02:34:30;195.17;;;45.13;;
8254;SDS011;4167;48.162;11.542;2023-02-28T02:37:08;166.40;;;43.63;;
8254;SDS011;4167;48.162;11.542;2023-02-28T02:39:42;139.07;;;41.73;;
8254;SDS011;4167;48.162;11.542;2023-02-28T02:42:14;179.00;;;45.13;;
8254;SDS011;4167;48.162;11.542;2023-02-28T02:44:45;164.93;;;43.97;;
8254;SDS011;4167;48.162;11.542;2023-02-28T02:47:15;159.50;;;43.97;;
8254;SDS011;4167;48.162;11.542;2023-02-28T02:49:45;156.90;;;43.67;;
8254;SDS011;4167;48.162;11.542;2023-02-28T02:52:14;157.97;;;43.63;;
8254;SDS011;4167;48.162;11.542;2023-02-28T02:54:43;165.60;;;44.50;;
8254;SDS011;4167;48.162;11.542;2023-02-28T02:57:12;162.50;;;43.37;;
8254;SDS011;4167;48.162;11.542;2023-02-28T02:59:42;181.77;;;44.30;;
8254;SDS011;4167;48.162;11.542;2023-02-28T03:02:10;143.43;;;42.87;;
8254;SDS011;4167;48.162;11.542;2023-02-28T03:04:40;163.53;;;44.23;;
8254;SDS011;4167;48.162;11.542;2023-02-28T03:07:10;145.57;;;42.70;;
8254;SDS011;4167;48.162;11.542;2023-02-28T03:09:36;162.53;;;43.90;;
8254;SDS011;4167;48.162;11.542;2023-02-28T03:12:03;193.20;;;45.20;;
8254;SDS011;4167;48.162;11.542;2023-02-28T03:14:33;167.67;;;44.43;;
8254;SDS011;4167;48.162;11.542;2023-02-28T03:17:11;163.70;;;44.30;;
8254;SDS011;4167;48.162;11.542;2023-02-28T03:19:51;215.43;;;45.83;;
8254;SDS011;4167;48.162;11.542;2023-02-28T03:22:31;174.73;;;44.90;;
8254;SDS011;4167;48.162;11.542;2023-02-28T03:25:05;197.93;;;45.63;;
8254;SDS011;4167;48.162;11.542;2023-02-28T03:27:36;193.47;;;45.77;;
8254;SDS011;4167;48.162;11.542;2023-02-28T03:30:06;164.20;;;43.67;;
8254;SDS011;4167;48.162;11.542;2023-02-28T03:32:36;156.73;;;43.40;;
8254;SDS011;4167;48.162;11.542;2023-02-28T03:35:06;187.77;;;45.13;;
8254;SDS011;4167;48.162;11.542;2023-02-28T03:37:37;204.77;;;45.73;;
8254;SDS011;4167;48.162;11.542;2023-02-28T03:40:06;177.77;;;44.90;;
8254;SDS011;4167;48.162;11.542;2023-02-28T03:42:37;152.23;;;44.30;;
8254;SDS011;4167;48.162;11.542;2023-02-28T03:45:08;196.60;;;45.57;;
8254;SDS011;4167;48.162;11.542;2023-02-28T03:47:38;151.50;;;44.00;;
8254;SDS011;4167;48.162;11.542;2023-02-28T03:50:07;188.50;;;45.93;;
8254;SDS011;4167;48.162;11.542;2023-02-28T03:52:40;167.80;;;44.30;;
8254;SDS011;4167;48.162;11.542;2023-02-28T03:55:10;207.27;;;48.20;;
8254;SDS011;4167;48.162;11.542;2023-02-28T03:57:38;157.40;;;44.70;;
8254;SDS011;4167;48.162;11.542;2023-02-28T04:00:08;215.00;;;47.13;;
8254;SDS011;4167;48.162;11.542;2023-02-28T04:02:37;96.50;;;41.50;;
8254;SDS011;4167;48.162;11.542;2023-02-28T04:05:04;179.27;;;45.40;;
8254;SDS011;4167;48.162;11.542;2023-02-28T04:07:32;165.80;;;44.77;;
8254;SDS011;4167;48.162;11.542;2023-02-28T04:09:59;166.17;;;44.13;;
8254;SDS011;4167;48.162;11.542;2023-02-28T04:12:26;182.97;;;46.63;;
8254;SDS011;4167;48.162;11.542;2023-02-28T04:14:52;177.10;;;45.00;;
8254;SDS011;4167;48.162;11.542;2023-02-28T04:17:19;216.13;;;45.97;;
8254;SDS011;4167;48.162;11.542;2023-02-28T04:19:45;224.57;;;47.70;;
8254;SDS011;4167;48.162;11.542;2023-02-28T04:22:12;179.17;;;45.40;;
8254;SDS011;4167;48.162;11.542;2023-02-28T04:24:38;167.27;;;45.47;;
8254;SDS011;4167;48.162;11.542;2023-02-28T04:27:08;230.37;;;47.60;;
8254;SDS011;4167;48.162;11.542;2023-02-28T04:29:34;201.63;;;45.80;;
8254;SDS011;4167;48.162;11.542;2023-02-28T04:32:01;214.23;;;47.70;;
8254;SDS011;4167;48.162;11.542;2023-02-28T04:34:29;245.97;;;48.57;;
8254;SDS011;4167;48.162;11.542;2023-02-28T04:36:56;172.60;;;43.97;;
8254;SDS011;4167;48.162;11.542;2023-02-28T04:39:23;163.47;;;45.50;;
8254;SDS011;4167;48.162;11.542;2023-02-28T04:41:50;182.67;;;46.30;;
8254;SDS011;4167;48.162;11.542;2023-02-28T04:44:18;237.43;;;48.73;;
8254;SDS011;4167;48.162;11.542;2023-02-28T04:46:47;178.50;;;46.47;;
8254;SDS011;4167;48.162;11.542;2023-02-28T04:49:14;194.37;;;46.87;;
8254;SDS011;4167;48.162;11.542;2023-02-28T04:51:41;192.70;;;46.73;;
8254;SDS011;4167;48.162;11.542;2023-02-28T04:54:08;189.10;;;47.53;;
8254;SDS011;4167;48.162;11.542;2023-02-28T04:56:35;212.70;;;49.10;;
8254;SDS011;4167;48.162;11.542;2023-02-28T04:59:01;182.40;;;45.83;;
8254;SDS011;4167;48.162;11.542;2023-02-28T05:01:31;163.27;;;44.47;;
8254;SDS011;4167;48.162;11.542;2023-02-28T05:03:59;196.57;;;46.43;;
8254;SDS011;4167;48.162;11.542;2023-02-28T05:06:26;177.47;;;46.80;;
8254;SDS011;4167;48.162;11.542;2023-02-28T05:08:54;212.50;;;47.60;;
8254;SDS011;4167;48.162;11.542;2023-02-28T05:11:22;185.40;;;45.63;;
8254;SDS011;4167;48.162;11.542;2023-02-28T05:13:50;179.33;;;48.10;;
8254;SDS011;4167;48.162;11.542;2023-02-28T05:16:18;223.03;;;47.80;;
8254;SDS011;4167;48.162;11.542;2023-02-28T05:18:46;171.93;;;46.30;;
8254;SDS011;4167;48.162;11.542;2023-02-28T05:21:24;155.97;;;45.37;;
8254;SDS011;4167;48.162;11.542;2023-02-28T05:23:53;195.87;;;46.90;;
8254;SDS011;4167;48.162;11.542;2023-02-28T05:26:21;169.63;;;45.07;;
8254;SDS011;4167;48.162;11.542;2023-02-28T05:28:47;179.97;;;47.13;;
8254;SDS011;4167;48.162;11.542;2023-02-28T05:31:14;197.00;;;46.80;;
8254;SDS011;4167;48.162;11.542;2023-02-28T05:33:40;187.93;;;48.30;;
8254;SDS011;4167;48.162;11.542;2023-02-28T05:36:08;185.97;;;47.27;;
8254;SDS011;4167;48.162;11.542;2023-02-28T05:38:35;203.47;;;47.70;;
8254;SDS011;4167;48.162;11.542;2023-02-28T05:41:04;158.50;;;46.80;;
8254;SDS011;4167;48.162;11.542;2023-02-28T05:43:32;201.00;;;48.73;;
8254;SDS011;4167;48.162;11.542;2023-02-28T05:45:58;206.20;;;48.83;;
8254;SDS011;4167;48.162;11.542;2023-02-28T05:48:25;166.17;;;45.67;;
8254;SDS011;4167;48.162;11.542;2023-02-28T05:50:51;240.37;;;51.10;;
8254;SDS011;4167;48.162;11.542;2023-02-28T05:53:19;91.40;;;42.97;;
8254;SDS011;4167;48.162;11.542;2023-02-28T05:55:46;228.83;;;50.07;;
8254;SDS011;4167;48.162;11.542;2023-02-28T05:58:13;248.93;;;52.07;;
8254;SDS011;4167;48.162;11.542;2023-02-28T06:00:39;191.90;;;47.73;;
8254;SDS011;4167;48.162;11.542;2023-02-28T06:03:06;282.30;;;52.13;;
8254;SDS011;4167;48.162;11.542;2023-02-28T06:05:32;216.43;;;50.07;;
8254;SDS011;4167;48.162;11.542;2023-02-28T06:07:59;262.57;;;52.03;;
8254;SDS011;4167;48.162;11.542;2023-02-28T06:10:27;264.80;;;52.90;;
8254;SDS011;4167;48.162;11.542;2023-02-28T06:12:53;262.53;;;52.67;;
8254;SDS011;4167;48.162;11.542;2023-02-28T06:15:20;236.87;;;51.73;;
8254;SDS011;4167;48.162;11.542;2023-02-28T06:17:46;262.07;;;54.00;;
8254;SDS011;4167;48.162;11.542;2023-02-28T06:20:13;246.23;;;52.67;;
8254;SDS011;4167;48.162;11.542;2023-02-28T06:22:39;247.60;;;51.20;;
8254;SDS011;4167;48.162;11.542;2023-02-28T06:25:06;276.67;;;54.43;;
8254;SDS011;4167;48.162;11.542;2023-02-28T06:27:35;243.20;;;50.93;;
8254;SDS011;4167;48.162;11.542;2023-02-28T06:30:01;287.00;;;55.17;;
8254;SDS011;4167;48.162;11.542;2023-02-28T06:32:28;260.23;;;53.97;;
8254;SDS011;4167;48.162;11.542;2023-02-28T06:34:55;285.87;;;55.20;;
8254;SDS011;4167;48.162;11.542;2023-02-28T06:37:23;235.37;;;52.47;;
8254;SDS011;4167;48.162;11.542;2023-02-28T06:39:51;278.17;;;54.60;;
8254;SDS011;4167;48.162;11.542;2023-02-28T06:42:17;216.10;;;50.53;;
8254;SDS011;4167;48.162;11.542;2023-02-28T06:44:46;213.63;;;49.90;;
8254;SDS011;4167;48.162;11.542;2023-02-28T06:47:12;259.40;;;54.00;;
8254;SDS011;4167;48.162;11.542;2023-02-28T06:49:39;198.97;;;48.63;;
8254;SDS011;4167;48.162;11.542;2023-02-28T06:52:05;236.47;;;53.10;;
8254;SDS011;4167;48.162;11.542;2023-02-28T06:54:32;210.90;;;50.37;;
8254;SDS011;4167;48.162;11.542;2023-02-28T06:56:58;247.37;;;52.03;;
8254;SDS011;4167;48.162;11.542;2023-02-28T06:59:25;203.63;;;50.97;;
8254;SDS011;4167;48.162;11.542;2023-02-28T07:01:52;328.07;;;57.83;;
8254;SDS011;4167;48.162;11.542;2023-02-28T07:04:20;363.60;;;57.17;;
8254;SDS011;4167;48.162;11.542;2023-02-28T07:06:46;211.27;;;50.23;;
8254;SDS011;4167;48.162;11.542;2023-02-28T07:09:13;241.17;;;53.70;;
8254;SDS011;4167;48.162;11.542;2023-02-28T07:11:40;251.03;;;50.90;;
8254;SDS011;4167;48.162;11.542;2023-02-28T07:14:08;310.57;;;56.53;;
8254;SDS011;4167;48.162;11.542;2023-02-28T07:16:35;207.27;;;51.23;;
8254;SDS011;4167;48.162;11.542;2023-02-28T07:19:03;206.57;;;50.67;;
8254;SDS011;4167;48.162;11.542;2023-02-28T07:21:30;225.93;;;51.57;;
8254;SDS011;4167;48.162;11.542;2023-02-28T07:23:56;311.73;;;54.30;;
8254;SDS011;4167;48.162;11.542;2023-02-28T07:26:23;271.10;;;54.03;;
8254;SDS011;4167;48.162;11.542;2023-02-28T07:28:49;243.43;;;53.77;;
8254;SDS011;4167;48.162;11.542;2023-02-28T07:31:16;238.90;;;52.77;;
8254;SDS011;4167;48.162;11.542;2023-02-28T07:33:43;201.33;;;50.33;;
8254;SDS011;4167;48.162;11.542;2023-02-28T07:36:12;217.60;;;51.30;;
8254;SDS011;4167;48.162;11.542;2023-02-28T07:38:40;216.33;;;49.33;;
8254;SDS011;4167;48.162;11.542;2023-02-28T07:41:07;255.33;;;53.83;;
8254;SDS011;4167;48.162;11.542;2023-02-28T07:43:34;219.97;;;50.63;;
8254;SDS011;4167;48.162;11.542;2023-02-28T07:46:01;270.97;;;55.07;;
8254;SDS011;4167;48.162;11.542;2023-02-28T07:48:28;250.27;;;53.07;;
8254;SDS011;4167;48.162;11.542;2023-02-28T07:50:55;255.20;;;52.57;;
8254;SDS011;4167;48.162;11.542;2023-02-28T07:53:23;238.53;;;51.27;;
8254;SDS011;4167;48.162;11.542;2023-02-28T07:55:50;295.23;;;55.67;;
8254;SDS011;4167;48.162;11.542;2023-02-28T07:58:18;235.47;;;51.07;;
8254;SDS011;4167;48.162;11.542;2023-02-28T08:00:44;271.37;;;53.97;;
8254;SDS011;4167;48.162;11.542;2023-02-28T08:03:11;180.67;;;50.47;;
8254;SDS011;4167;48.162;11.542;2023-02-28T08:05:38;224.97;;;52.27;;
8254;SDS011;4167;48.162;11.542;2023-02-28T08:08:05;335.90;;;60.53;;
8254;SDS011;4167;48.162;11.542;2023-02-28T08:10:33;252.87;;;53.10;;
8254;SDS011;4167;48.162;11.542;2023-02-28T08:12:59;296.77;;;56.50;;
8254;SDS011;4167;48.162;11.542;2023-02-28T08:15:26;255.57;;;54.53;;
8254;SDS011;4167;48.162;11.542;2023-02-28T08:17:52;337.43;;;56.33;;
8254;SDS011;4167;48.162;11.542;2023-02-28T08:20:21;274.50;;;57.00;;
8254;SDS011;4167;48.162;11.542;2023-02-28T08:22:47;230.67;;;50.80;;
8254;SDS011;4167;48.162;11.542;2023-02-28T08:25:14;200.37;;;51.33;;
8254;SDS011;4167;48.162;11.542;2023-02-28T08:27:42;230.47;;;51.50;;
8254;SDS011;4167;48.162;11.542;2023-02-28T08:30:09;292.13;;;55.50;;
8254;SDS011;4167;48.162;11.542;2023-02-28T08:32:36;200.50;;;50.80;;
8254;SDS011;4167;48.162;11.542;2023-02-28T08:35:03;255.37;;;53.53;;
8254;SDS011;4167;48.162;11.542;2023-02-28T08:37:30;218.57;;;52.17;;
8254;SDS011;4167;48.162;11.542;2023-02-28T08:39:56;254.30;;;54.80;;
8254;SDS011;4167;48.162;11.542;2023-02-28T08:42:23;185.30;;;51.27;;
8254;SDS011;4167;48.162;11.542;2023-02-28T08:44:51;346.00;;;58.70;;
8254;SDS011;4167;48.162;11.542;2023-02-28T08:47:18;215.47;;;50.53;;
8254;SDS011;4167;48.162;11.542;2023-02-28T08:49:45;122.57;;;46.67;;
8254;SDS011;4167;48.162;11.542;2023-02-28T08:52:11;127.57;;;49.13;;
8254;SDS011;4167;48.162;11.542;2023-02-28T08:54:37;193.07;;;51.07;;
8254;SDS011;4167;48.162;11.542;2023-02-28T08:57:04;129.60;;;45.97;;
8254;SDS011;4167;48.162;11.542;2023-02-28T08:59:31;133.07;;;46.00;;
8254;SDS011;4167;48.162;11.542;2023-02-28T09:01:59;122.00;;;46.07;;
8254;SDS011;4167;48.162;11.542;2023-02-28T09:04:25;116.60;;;45.60;;
8254;SDS011;4167;48.162;11.542;2023-02-28T09:06:55;134.97;;;46.83;;
8254;SDS011;4167;48.162;11.542;2023-02-28T09:09:22;102.13;;;44.03;;
8254;SDS011;4167;48.162;11.542;2023-02-28T09:11:48;139.97;;;47.40;;
8254;SDS011;4167;48.162;11.542;2023-02-28T09:14:15;97.80;;;43.20;;
8254;SDS011;4167;48.162;11.542;2023-02-28T09:16:42;168.20;;;48.60;;
8254;SDS011;4167;48.162;11.542;2023-02-28T09:19:11;150.43;;;49.33;;
8254;SDS011;4167;48.162;11.542;2023-02-28T09:21:38;193.93;;;52.13;;
8254;SDS011;4167;48.162;11.542;2023-02-28T09:24:05;157.43;;;49.03;;
8254;SDS011;4167;48.162;11.542;2023-02-28T09:26:32;127.77;;;48.33;;
8254;SDS011;4167;48.162;11.542;2023-02-28T09:28:59;124.20;;;47.73;;
8254;SDS011;4167;48.162;11.542;2023-02-28T09:31:27;124.07;;;45.57;;
8254;SDS011;4167;48.162;11.542;2023-02-28T09:33:55;130.93;;;47.40;;
8254;SDS011;4167;48.162;11.542;2023-02-28T09:36:24;124.23;;;46.23;;
8254;SDS011;4167;48.162;11.542;2023-02-28T09:38:51;145.10;;;49.57;;
8254;SDS011;4167;48.162;11.542;2023-02-28T09:41:19;125.93;;;47.87;;
8254;SDS011;4167;48.162;11.542;2023-02-28T09:43:47;185.53;;;51.23;;
8254;SDS011;4167;48.162;11.542;2023-02-28T09:46:20;108.13;;;46.17;;
8254;SDS011;4167;48.162;11.542;2023-02-28T09:48:51;131.97;;;46.87;;
8254;SDS011;4167;48.162;11.542;2023-02-28T09:51:26;119.50;;;46.60;;
8254;SDS011;4167;48.162;11.542;2023-02-28T09:53:57;140.50;;;46.83;;
8254;SDS011;4167;48.162;11.542;2023-02-28T09:56:24;107.23;;;45.83;;
8254;SDS011;4167;48.162;11.542;2023-02-28T09:58:54;128.43;;;45.33;;
8254;SDS011;4167;48.162;11.542;2023-02-28T10:01:24;122.30;;;47.67;;
8254;SDS011;4167;48.162;11.542;2023-02-28T10:03:55;166.83;;;49.53;;
8254;SDS011;4167;48.162;11.542;2023-02-28T10:06:26;170.17;;;51.33;;
8254;SDS011;4167;48.162;11.542;2023-02-28T10:08:58;104.40;;;46.47;;
8254;SDS011;4167;48.162;11.542;2023-02-28T10:11:28;115.57;;;46.47;;
8254;SDS011;4167;48.162;11.542;2023-02-28T10:13:56;131.00;;;47.40;;
8254;SDS011;4167;48.162;11.542;2023-02-28T10:16:28;142.43;;;49.07;;
8254;SDS011;4167;48.162;11.542;2023-02-28T10:18:59;164.80;;;52.33;;
8254;SDS011;4167;48.162;11.542;2023-02-28T10:21:31;143.47;;;50.17;;
8254;SDS011;4167;48.162;11.542;2023-02-28T10:24:03;133.43;;;49.37;;
8254;SDS011;4167;48.162;11.542;2023-02-28T10:26:32;147.67;;;49.27;;
8254;SDS011;4167;48.162;11.542;2023-02-28T10:28:59;133.90;;;49.63;;
8254;SDS011;4167;48.162;11.542;2023-02-28T10:31:27;134.17;;;49.63;;
8254;SDS011;4167;48.162;11.542;2023-02-28T10:33:53;165.27;;;51.90;;
8254;SDS011;4167;48.162;11.542;2023-02-28T10:36:21;125.70;;;48.33;;
8254;SDS011;4167;48.162;11.542;2023-02-28T10:38:49;126.20;;;48.70;;
8254;SDS011;4167;48.162;11.542;2023-02-28T10:41:16;121.13;;;49.57;;
8254;SDS011;4167;48.162;11.542;2023-02-28T10:43:53;146.13;;;50.60;;
8254;SDS011;4167;48.162;11.542;2023-02-28T10:46:39;153.13;;;49.20;;
8254;SDS011;4167;48.162;11.542;2023-02-28T10:49:07;173.30;;;51.83;;
8254;SDS011;4167;48.162;11.542;2023-02-28T10:51:39;156.20;;;51.27;;
8254;SDS011;4167;48.162;11.542;2023-02-28T10:54:15;145.33;;;51.07;;
8254;SDS011;4167;48.162;11.542;2023-02-28T10:56:42;183.03;;;50.40;;
8254;SDS011;4167;48.162;11.542;2023-02-28T10:59:22;155.63;;;49.23;;
8254;SDS011;4167;48.162;11.542;2023-02-28T11:01:53;177.90;;;51.83;;
8254;SDS011;4167;48.162;11.542;2023-02-28T11:04:20;182.60;;;50.97;;
8254;SDS011;4167;48.162;11.542;2023-02-28T11:06:58;177.23;;;52.93;;
8254;SDS011;4167;48.162;11.542;2023-02-28T11:09:28;165.20;;;49.67;;
8254;SDS011;4167;48.162;11.542;2023-02-28T11:11:59;165.13;;;49.83;;
8254;SDS011;4167;48.162;11.542;2023-02-28T11:14:27;199.57;;;52.33;;
8254;SDS011;4167;48.162;11.542;2023-02-28T11:16:55;210.10;;;52.77;;
8254;SDS011;4167;48.162;11.542;2023-02-28T11:19:26;140.50;;;50.77;;
8254;SDS011;4167;48.162;11.542;2023-02-28T11:21:54;252.43;;;53.97;;
8254;SDS011;4167;48.162;11.542;2023-02-28T11:24:23;186.93;;;53.60;;
8254;SDS011;4167;48.162;11.542;2023-02-28T11:26:52;204.30;;;53.67;;
8254;SDS011;4167;48.162;11.542;2023-02-28T11:29:20;191.23;;;52.87;;
8254;SDS011;4167;48.162;11.542;2023-02-28T11:32:12;145.83;;;50.33;;
8254;SDS011;4167;48.162;11.542;2023-02-28T11:34:40;158.70;;;49.13;;
8254;SDS011;4167;48.162;11.542;2023-02-28T11:37:09;144.13;;;49.13;;
8254;SDS011;4167;48.162;11.542;2023-02-28T11:39:38;208.40;;;53.73;;
8254;SDS011;4167;48.162;11.542;2023-02-28T11:42:10;166.20;;;51.50;;
8254;SDS011;4167;48.162;11.542;2023-02-28T11:44:45;151.53;;;50.00;;
8254;SDS011;4167;48.162;11.542;2023-02-28T11:47:24;158.03;;;50.00;;
8254;SDS011;4167;48.162;11.542;2023-02-28T11:49:59;186.13;;;51.43;;
8254;SDS011;4167;48.162;11.542;2023-02-28T11:52:42;165.80;;;50.23;;
8254;SDS011;4167;48.162;11.542;2023-02-28T11:55:14;133.27;;;50.53;;
8254;SDS011;4167;48.162;11.542;2023-02-28T11:57:49;176.30;;;51.30;;
8254;SDS011;4167;48.162;11.542;2023-02-28T12:00:27;172.70;;;54.37;;
8254;SDS011;4167;48.162;11.542;2023-02-28T12:03:03;204.37;;;53.93;;
8254;SDS011;4167;48.162;11.542;2023-02-28T12:05:38;140.40;;;50.97;;
8254;SDS011;4167;48.162;11.542;2023-02-28T12:08:15;184.97;;;51.67;;
8254;SDS011;4167;48.162;11.542;2023-02-28T12:10:53;190.17;;;53.47;;
8254;SDS011;4167;48.162;11.542;2023-02-28T12:13:26;97.97;;;47.97;;
8254;SDS011;4167;48.162;11.542;2023-02-28T12:19:07;173.97;;;51.17;;
8254;SDS011;4167;48.162;11.542;2023-02-28T12:21:48;234.60;;;54.27;;
8254;SDS011;4167;48.162;11.542;2023-02-28T12:24:39;182.50;;;52.50;;
8254;SDS011;4167;48.162;11.542;2023-02-28T12:27:15;184.77;;;53.80;;
8254;SDS011;4167;48.162;11.542;2023-02-28T12:29:46;186.37;;;52.60;;
8254;SDS011;4167;48.162;11.542;2023-02-28T12:32:16;187.40;;;53.60;;
8254;SDS011;4167;48.162;11.542;2023-02-28T12:34:47;216.77;;;54.90;;
8254;SDS011;4167;48.162;11.542;2023-02-28T12:37:17;150.97;;;50.07;;
8254;SDS011;4167;48.162;11.542;2023-02-28T12:39:49;193.97;;;52.67;;
8254;SDS011;4167;48.162;11.542;2023-02-28T12:42:19;217.00;;;53.97;;
8254;SDS011;4167;48.162;11.542;2023-02-28T12:44:53;226.37;;;53.87;;
8254;SDS011;4167;48.162;11.542;2023-02-28T12:47:20;178.83;;;53.10;;
8254;SDS011;4167;48.162;11.542;2023-02-28T12:49:48;182.90;;;52.33;;
8254;SDS011;4167;48.162;11.542;2023-02-28T12:52:17;159.20;;;52.17;;
8254;SDS011;4167;48.162;11.542;2023-02-28T12:54:47;161.00;;;51.83;;
8254;SDS011;4167;48.162;11.542;2023-02-28T12:57:18;166.57;;;51.23;;
8254;SDS011;4167;48.162;11.542;2023-02-28T12:59:49;167.87;;;50.87;;
8254;SDS011;4167;48.162;11.542;2023-02-28T13:05:19;187.30;;;52.67;;
8254;SDS011;4167;48.162;11.542;2023-02-28T13:07:56;205.13;;;54.10;;
8254;SDS011;4167;48.162;11.542;2023-02-28T13:10:39;156.63;;;51.17;;
8254;SDS011;4167;48.162;11.542;2023-02-28T13:13:11;141.73;;;50.13;;
8254;SDS011;4167;48.162;11.542;2023-02-28T13:15:40;161.83;;;51.33;;
8254;SDS011;4167;48.162;11.542;2023-02-28T13:18:20;160.87;;;50.77;;
8254;SDS011;4167;48.162;11.542;2023-02-28T13:20:56;186.13;;;51.70;;
8254;SDS011;4167;48.162;11.542;2023-02-28T13:29:30;150.83;;;49.90;;
8254;SDS011;4167;48.162;11.542;2023-02-28T13:44:21;199.37;;;53.27;;
8254;SDS011;4167;48.162;11.542;2023-02-28T13:49:47;150.67;;;50.57;;
8254;SDS011;4167;48.162;11.542;2023-02-28T13:52:15;144.87;;;51.33;;
8254;SDS011;4167;48.162;11.542;2023-02-28T13:54:48;157.53;;;50.47;;
8254;SDS011;4167;48.162;11.542;2023-02-28T13:57:23;157.93;;;51.03;;
8254;SDS011;4167;48.162;11.542;2023-02-28T14:00:00;171.10;;;51.63;;
8254;SDS011;4167;48.162;11.542;2023-02-28T14:05:19;180.83;;;54.87;;
8254;SDS011;4167;48.162;11.542;2023-02-28T14:07:52;204.77;;;53.90;;
8254;SDS011;4167;48.162;11.542;2023-02-28T14:10:25;163.53;;;51.17;;
8254;SDS011;4167;48.162;11.542;2023-02-28T14:12:59;201.80;;;53.20;;
8254;SDS011;4167;48.162;11.542;2023-02-28T14:15:54;155.67;;;49.90;;
8254;SDS011;4167;48.162;11.542;2023-02-28T14:18:23;193.13;;;50.60;;
8254;SDS011;4167;48.162;11.542;2023-02-28T14:20:53;239.90;;;54.03;;
8254;SDS011;4167;48.162;11.542;2023-02-28T14:23:32;139.60;;;49.47;;
8254;SDS011;4167;48.162;11.542;2023-02-28T14:26:06;173.40;;;50.87;;
8254;SDS011;4167;48.162;11.542;2023-02-28T14:28:49;172.23;;;50.33;;
8254;SDS011;4167;48.162;11.542;2023-02-28T14:31:23;151.80;;;50.40;;
8254;SDS011;4167;48.162;11.542;2023-02-28T14:33:57;198.73;;;52.03;;
8254;SDS011;4167;48.162;11.542;2023-02-28T14:36:31;172.37;;;50.93;;
8254;SDS011;4167;48.162;11.542;2023-02-28T14:38:59;209.83;;;52.83;;
8254;SDS011;4167;48.162;11.542;2023-02-28T14:41:30;165.53;;;50.40;;
8254;SDS011;4167;48.162;11.542;2023-02-28T14:44:00;288.70;;;57.77;;
8254;SDS011;4167;48.162;11.542;2023-02-28T14:46:28;160.97;;;49.47;;
8254;SDS011;4167;48.162;11.542;2023-02-28T14:48:59;205.23;;;54.57;;
8254;SDS011;4167;48.162;11.542;2023-02-28T14:51:25;160.73;;;49.67;;
8254;SDS011;4167;48.162;11.542;2023-02-28T14:53:52;191.53;;;50.93;;
8254;SDS011;4167;48.162;11.542;2023-02-28T14:56:24;161.53;;;50.97;;
8254;SDS011;4167;48.162;11.542;2023-02-28T14:58:55;201.97;;;52.07;;
8254;SDS011;4167;48.162;11.542;2023-02-28T15:01:23;193.63;;;53.13;;
8254;SDS011;4167;48.162;11.542;2023-02-28T15:03:56;178.10;;;51.97;;